Time,TemperatureF,DewpointF,PressureIn,WindDirection,WindDirectionDegrees,WindSpeedMPH,WindSpeedGustMPH,Humidity,HourlyPrecipIn,Conditions,Clouds,dailyrainin,SoftwareType,DateUTC
2013-02-25 00:10:00,30.0,29.8,29.76,SSW,202,0.0,-999.0,99,-99.99,,,0.00,Acu-Link.com,2013-02-25 05:10:00,
2013-02-25 00:25:00,29.8,29.6,29.76,SSW,202,0.0,-999.0,99,-99.99,,,0.00,Acu-Link.com,2013-02-25 05:25:00,
2013-02-25 00:41:00,29.7,29.5,29.76,SSW,202,0.0,-999.0,99,-99.99,,,0.00,Acu-Link.com,2013-02-25 05:41:00,
2013-02-25 00:56:00,29.7,29.5,29.77,SSW,202,0.0,-999.0,99,-99.99,,,0.00,Acu-Link.com,2013-02-25 05:56:00,
2013-02-25 01:11:00,29.7,29.5,29.77,SSW,202,0.0,-999.0,99,-99.99,,,0.00,Acu-Link.com,2013-02-25 06:11:00,
2013-02-25 01:27:00,29.7,29.5,29.78,SSW,202,0.0,-999.0,99,-99.99,,,0.00,Acu-Link.com,2013-02-25 06:27:00,
2013-02-25 01:42:00,29.7,29.5,29.79,SSW,202,0.0,-999.0,99,-99.99,,,0.00,Acu-Link.com,2013-02-25 06:42:00,
2013-02-25 01:57:00,29.7,29.5,29.79,SSW,202,0.0,-999.0,99,-99.99,,,0.00,Acu-Link.com,2013-02-25 06:57:00,
2013-02-25 02:13:00,29.7,29.5,29.79,SSW,202,0.0,-999.0,99,-99.99,,,0.00,Acu-Link.com,2013-02-25 07:13:00,
2013-02-25 02:28:00,29.5,29.3,29.80,SSW,202,0.0,-999.0,99,-99.99,,,0.00,Acu-Link.com,2013-02-25 07:28:00,
2013-02-25 02:43:00,29.3,29.1,29.81,SSW,202,0.0,-999.0,99,-99.99,,,0.00,Acu-Link.com,2013-02-25 07:43:00,
2013-02-25 02:58:00,29.3,29.1,29.79,SSW,202,0.0,-999.0,99,-99.99,,,0.00,Acu-Link.com,2013-02-25 07:58:00,
2013-02-25 03:14:00,29.1,28.9,29.80,SSW,202,0.0,-999.0,99,-99.99,,,0.00,Acu-Link.com,2013-02-25 08:14:00,
2013-02-25 03:29:00,28.9,28.7,29.81,SSW,202,0.0,-999.0,99,-99.99,,,0.00,Acu-Link.com,2013-02-25 08:29:00,
2013-02-25 03:44:00,28.8,28.6,29.81,SSW,202,0.0,-999.0,99,-99.99,,,0.00,Acu-Link.com,2013-02-25 08:44:00,
2013-02-25 03:59:00,28.4,28.2,29.81,SSW,202,0.0,-999.0,99,-99.99,,,0.00,Acu-Link.com,2013-02-25 08:59:00,
2013-02-25 04:18:00,28.4,28.2,29.82,SSW,202,0.0,-999.0,99,-99.99,,,0.00,Acu-Link.com,2013-02-25 09:18:00,
2013-02-25 04:33:00,28.2,28.0,29.83,SSW,202,0.0,-999.0,99,-99.99,,,0.00,Acu-Link.com,2013-02-25 09:33:00,
2013-02-25 04:48:00,27.9,27.7,29.83,SSW,202,0.0,-999.0,99,-99.99,,,0.00,Acu-Link.com,2013-02-25 09:48:00,
2013-02-25 05:03:00,27.1,26.9,29.84,SSW,202,0.0,-999.0,99,-99.99,,,0.00,Acu-Link.com,2013-02-25 10:03:00,
2013-02-25 05:18:00,26.8,26.6,29.84,SSW,202,0.0,-999.0,99,-99.99,,,0.00,Acu-Link.com,2013-02-25 10:18:00,
2013-02-25 05:33:00,26.1,25.6,29.85,SSW,202,0.0,-999.0,98,-99.99,,,0.00,Acu-Link.com,2013-02-25 10:33:00,
2013-02-25 05:48:00,25.9,25.4,29.85,SSW,202,0.0,-999.0,98,-99.99,,,0.00,Acu-Link.com,2013-02-25 10:48:00,
2013-02-25 06:04:00,25.0,24.5,29.86,SSW,202,0.0,-999.0,98,-99.99,,,0.00,Acu-Link.com,2013-02-25 11:04:00,
2013-02-25 06:19:00,24.8,24.3,29.87,SSW,202,0.0,-999.0,98,-99.99,,,0.00,Acu-Link.com,2013-02-25 11:19:00,
2013-02-25 06:34:00,24.8,24.3,29.88,SSW,202,0.0,-999.0,98,-99.99,,,0.00,Acu-Link.com,2013-02-25 11:34:00,
2013-02-25 06:49:00,25.2,24.7,29.88,SSW,202,0.0,-999.0,98,-99.99,,,0.00,Acu-Link.com,2013-02-25 11:49:00,
2013-02-25 07:05:00,25.9,25.4,29.89,SSW,202,0.0,-999.0,98,-99.99,,,0.00,Acu-Link.com,2013-02-25 12:05:00,
2013-02-25 07:20:00,26.4,25.9,29.89,SSW,202,0.0,-999.0,98,-99.99,,,0.00,Acu-Link.com,2013-02-25 12:20:00,
2013-02-25 07:35:00,27.1,26.6,29.90,SSW,202,0.0,-999.0,98,-99.99,,,0.00,Acu-Link.com,2013-02-25 12:35:00,
2013-02-25 07:50:00,27.7,27.0,29.90,SSW,202,0.0,-999.0,97,-99.99,,,0.00,Acu-Link.com,2013-02-25 12:50:00,
2013-02-25 08:21:00,30.6,28.8,29.91,South,180,0.0,-999.0,93,-99.99,,,0.00,Acu-Link.com,2013-02-25 13:21:00,
2013-02-25 08:36:00,31.8,30.0,29.91,South,180,0.0,-999.0,93,-99.99,,,0.00,Acu-Link.com,2013-02-25 13:36:00,
2013-02-25 08:51:00,32.9,31.1,29.91,South,180,0.0,-999.0,93,-99.99,,,0.00,Acu-Link.com,2013-02-25 13:51:00,
2013-02-25 09:21:00,34.5,32.1,29.93,South,180,0.0,-999.0,91,-99.99,,,0.00,Acu-Link.com,2013-02-25 14:21:00,
2013-02-25 09:37:00,35.8,32.9,29.94,SSW,202,0.0,-999.0,89,-99.99,,,0.00,Acu-Link.com,2013-02-25 14:37:00,
2013-02-25 09:52:00,35.8,32.6,29.93,South,180,0.0,-999.0,88,-99.99,,,0.00,Acu-Link.com,2013-02-25 14:52:00,
2013-02-25 10:07:00,36.5,33.3,29.93,NNE,22,0.0,-999.0,88,-99.99,,,0.00,Acu-Link.com,2013-02-25 15:07:00,
2013-02-25 10:24:00,37.0,33.5,29.94,SSW,202,0.0,-999.0,87,-99.99,,,0.00,Acu-Link.com,2013-02-25 15:24:00,
2013-02-25 10:39:00,38.1,34.3,29.94,NNE,22,0.0,-999.0,86,-99.99,,,0.01,Acu-Link.com,2013-02-25 15:39:00,
2013-02-25 10:54:00,38.8,34.7,29.93,NNE,22,0.0,-999.0,85,-99.99,,,0.01,Acu-Link.com,2013-02-25 15:54:00,
2013-02-25 11:10:00,38.8,34.7,29.93,NNE,22,0.0,-999.0,85,-99.99,,,0.01,Acu-Link.com,2013-02-25 16:10:00,
2013-02-25 11:25:00,38.7,34.9,29.94,NNE,22,0.0,-999.0,86,-99.99,,,0.01,Acu-Link.com,2013-02-25 16:25:00,
2013-02-25 11:41:00,39.4,35.3,29.94,NNE,22,0.0,-999.0,85,-99.99,,,0.02,Acu-Link.com,2013-02-25 16:41:00,
2013-02-25 11:56:00,38.1,34.6,29.94,NNE,22,0.0,-999.0,87,-99.99,,,0.02,Acu-Link.com,2013-02-25 16:56:00,
2013-02-25 12:11:00,39.0,34.9,29.95,NNE,22,0.0,-999.0,85,-99.99,,,0.04,Acu-Link.com,2013-02-25 17:11:00,
2013-02-25 12:26:00,39.6,35.5,29.95,NNE,22,0.0,-999.0,85,-99.99,,,0.06,Acu-Link.com,2013-02-25 17:26:00,
2013-02-25 12:42:00,38.5,34.7,29.96,NNE,22,0.0,-999.0,86,-99.99,,,0.08,Acu-Link.com,2013-02-25 17:42:00,
2013-02-25 12:57:00,37.8,34.9,29.96,NNE,22,0.0,-999.0,89,-99.99,,,0.11,Acu-Link.com,2013-02-25 17:57:00,
2013-02-25 13:12:00,36.5,33.9,29.97,NNE,22,0.0,-999.0,90,-99.99,,,0.13,Acu-Link.com,2013-02-25 18:12:00,
2013-02-25 13:28:00,35.8,33.4,29.97,NNE,22,0.0,-999.0,91,-99.99,,,0.17,Acu-Link.com,2013-02-25 18:28:00,
2013-02-25 13:43:00,35.8,33.7,29.99,NNE,22,0.0,-999.0,92,-99.99,,,0.19,Acu-Link.com,2013-02-25 18:43:00,
2013-02-25 13:58:00,35.6,33.5,29.98,NNE,22,0.0,-999.0,92,-99.99,,,0.20,Acu-Link.com,2013-02-25 18:58:00,
2013-02-25 14:13:00,35.6,33.8,29.99,NNE,22,0.0,-999.0,93,-99.99,,,0.22,Acu-Link.com,2013-02-25 19:13:00,
2013-02-25 14:29:00,35.2,33.4,29.99,NNE,22,0.0,-999.0,93,-99.99,,,0.26,Acu-Link.com,2013-02-25 19:29:00,
2013-02-25 14:44:00,34.5,32.7,30.00,NNE,22,0.0,-999.0,93,-99.99,,,0.27,Acu-Link.com,2013-02-25 19:44:00,
2013-02-25 14:59:00,34.2,32.7,30.00,NNE,22,0.0,-999.0,94,-99.99,,,0.28,Acu-Link.com,2013-02-25 19:59:00,
2013-02-25 15:15:00,35.2,33.6,30.00,NNE,22,0.0,-999.0,94,-99.99,,,0.29,Acu-Link.com,2013-02-25 20:15:00,
2013-02-25 15:30:00,35.2,33.4,30.00,NNE,22,0.0,-999.0,93,-99.99,,,0.30,Acu-Link.com,2013-02-25 20:30:00,
2013-02-25 15:45:00,34.9,33.4,30.00,NNE,22,0.0,-999.0,94,-99.99,,,0.33,Acu-Link.com,2013-02-25 20:45:00,
2013-02-25 16:01:00,34.9,33.4,30.01,NNE,22,0.0,-999.0,94,-99.99,,,0.34,Acu-Link.com,2013-02-25 21:01:00,
2013-02-25 16:16:00,34.7,33.4,30.00,NNE,22,0.0,-999.0,95,-99.99,,,0.35,Acu-Link.com,2013-02-25 21:16:00,
2013-02-25 16:31:00,34.3,33.0,30.01,NNE,22,0.0,-999.0,95,-99.99,,,0.36,Acu-Link.com,2013-02-25 21:31:00,
2013-02-25 16:47:00,33.8,32.8,30.01,NNE,22,0.0,-999.0,96,-99.99,,,0.37,Acu-Link.com,2013-02-25 21:47:00,
2013-02-25 17:02:00,33.8,32.8,30.01,NNE,22,0.0,-999.0,96,-99.99,,,0.38,Acu-Link.com,2013-02-25 22:02:00,
2013-02-25 17:17:00,33.3,32.3,30.01,NNE,22,0.0,-999.0,96,-99.99,,,0.38,Acu-Link.com,2013-02-25 22:17:00,
2013-02-25 17:33:00,32.9,32.4,30.01,NNE,22,0.0,-999.0,98,-99.99,,,0.39,Acu-Link.com,2013-02-25 22:33:00,
2013-02-25 17:48:00,32.5,32.3,30.01,NNE,22,0.0,-999.0,99,-99.99,,,0.39,Acu-Link.com,2013-02-25 22:48:00,
2013-02-25 18:03:00,32.4,32.2,30.01,NNE,22,0.0,-999.0,99,-99.99,,,0.39,Acu-Link.com,2013-02-25 23:03:00,
2013-02-25 18:18:00,32.2,32.0,30.02,NNE,22,0.0,-999.0,99,-99.99,,,0.40,Acu-Link.com,2013-02-25 23:18:00,
2013-02-25 18:34:00,32.0,31.8,30.03,NNE,22,0.0,-999.0,99,-99.99,,,0.40,Acu-Link.com,2013-02-25 23:34:00,
2013-02-25 18:49:00,32.0,31.8,30.04,NNE,22,0.0,-999.0,99,-99.99,,,0.40,Acu-Link.com,2013-02-25 23:49:00,
2013-02-25 19:04:00,32.0,31.8,30.05,NNE,22,0.0,-999.0,99,-99.99,,,0.40,Acu-Link.com,2013-02-26 00:04:00,
2013-02-25 19:20:00,31.8,31.6,30.06,NNE,22,0.0,-999.0,99,-99.99,,,0.40,Acu-Link.com,2013-02-26 00:20:00,
2013-02-25 19:35:00,31.8,31.6,30.07,NNE,22,0.0,-999.0,99,-99.99,,,0.40,Acu-Link.com,2013-02-26 00:35:00,
2013-02-25 19:50:00,31.8,31.6,30.07,NNE,22,0.0,-999.0,99,-99.99,,,0.41,Acu-Link.com,2013-02-26 00:50:00,
2013-02-25 20:05:00,31.8,31.6,30.07,NNE,22,0.0,-999.0,99,-99.99,,,0.41,Acu-Link.com,2013-02-26 01:05:00,
2013-02-25 20:21:00,31.8,31.6,30.07,NNE,22,0.0,-999.0,99,-99.99,,,0.41,Acu-Link.com,2013-02-26 01:21:00,
2013-02-25 20:36:00,31.8,31.6,30.06,NNE,22,0.0,-999.0,99,-99.99,,,0.41,Acu-Link.com,2013-02-26 01:36:00,
2013-02-25 20:51:00,31.6,31.4,30.07,NNE,22,0.0,-999.0,99,-99.99,,,0.41,Acu-Link.com,2013-02-26 01:51:00,
2013-02-25 21:07:00,31.6,31.4,30.07,NNE,22,0.0,-999.0,99,-99.99,,,0.41,Acu-Link.com,2013-02-26 02:07:00,
2013-02-25 21:22:00,31.6,31.4,30.06,NNE,22,0.0,-999.0,99,-99.99,,,0.41,Acu-Link.com,2013-02-26 02:22:00,
2013-02-25 21:37:00,31.6,31.4,30.06,NNE,22,0.0,-999.0,99,-99.99,,,0.41,Acu-Link.com,2013-02-26 02:37:00,
2013-02-25 21:53:00,31.5,31.3,30.07,NNE,22,0.0,-999.0,99,-99.99,,,0.41,Acu-Link.com,2013-02-26 02:53:00,
2013-02-25 22:08:00,31.5,31.3,30.06,NNE,22,0.0,-999.0,99,-99.99,,,0.41,Acu-Link.com,2013-02-26 03:08:00,
2013-02-25 22:23:00,31.5,31.3,30.06,NNE,22,0.0,-999.0,99,-99.99,,,0.41,Acu-Link.com,2013-02-26 03:23:00,
2013-02-25 22:38:00,31.5,31.3,30.07,NNE,22,0.0,-999.0,99,-99.99,,,0.41,Acu-Link.com,2013-02-26 03:38:00,
2013-02-25 22:53:00,31.5,31.3,30.07,NNE,22,0.0,-999.0,99,-99.99,,,0.41,Acu-Link.com,2013-02-26 03:53:00,
2013-02-25 23:08:00,31.5,31.3,30.07,NNE,22,0.0,-999.0,99,-99.99,,,0.41,Acu-Link.com,2013-02-26 04:08:00,
2013-02-25 23:24:00,31.5,31.3,30.08,NNE,22,0.0,-999.0,99,-99.99,,,0.41,Acu-Link.com,2013-02-26 04:24:00,
2013-02-25 23:39:00,31.5,31.3,30.08,NNE,22,0.0,-999.0,99,-99.99,,,0.41,Acu-Link.com,2013-02-26 04:39:00,
2013-02-25 23:54:00,31.3,31.1,30.08,NNE,22,0.0,-999.0,99,-99.99,,,0.41,Acu-Link.com,2013-02-26 04:54:00,